Latest Coastal Weather Observations for Noarlunga

IDS60701

Issued at 12:51 am CDT Tuesday 27 January 2015 (issued every 10 minutes, with the page automatically refreshed every 10 minutes)

About coastal observations | Map of coastal stations | Coastal observations for SA | Marine services | Other Formats
Station Details ID: 023885 Name: NOARLUNGA Lat: -35.16 Lon: 138.51 Height: 55.0 m
Data from the previous 72 hours. | See also: Recent months at Noarlunga
Date/Time
CDT
Temp

°C
Wind Pressure Rain
since 9am
mm
Weather Cloud Vis
km
Sea
Height
m
Swell
Dir
 
Speed
knots
Gust
knots
hPa Trend Height
m
Period
s
Dir
27/12:30am 12.2 SE 2 3 - - 0.0 - - - - - - -
27/12:00am 12.5 SE 3 4 - - 0.0 - - - - - - -
 
Date/Time
CDT
Temp

°C
Wind Pressure Rain
since 9am
mm
Weather Cloud Vis
km
Sea
Height
m
Swell
Dir
 
Speed
knots
Gust
knots
hPa Trend Height
m
Period
s
Dir
26/11:30pm 13.2 SSE 4 5 - - 0.0 - - - - - - -
26/11:00pm 13.5 SSE 5 6 - - 0.0 - - - - - - -
26/10:30pm 13.9 SSE 5 6 - - 0.0 - - - - - - -
26/10:00pm 14.5 S 6 9 - - 0.0 - - - - - - -
26/09:30pm 14.9 SSE 6 9 - - 0.0 - - - - - - -
26/09:00pm 15.4 S 8 12 - - 0.0 - - - - - - -
26/08:30pm 15.9 SSE 10 15 - - 0.0 - - - - - - -
26/08:00pm 16.7 S 10 14 - - 0.0 - - - - - - -
26/07:30pm 17.7 S 13 18 - - 0.0 - - - - - - -
26/07:00pm 18.1 SSE 12 17 - - 0.0 - - - - - - -
26/06:30pm 19.2 S 11 19 - - 0.0 - - - - - - -
26/06:00pm 18.3 SSE 12 16 - - 0.0 - - - - - - -
26/05:30pm 19.6 SSE 11 16 - - 0.0 - - - - - - -
26/05:00pm 19.1 SSE 13 17 - - 0.0 - - - - - - -
26/04:30pm 19.9 SSE 10 20 - - 0.0 - - - - - - -
26/04:00pm 20.5 S 9 18 - - 0.0 - - - - - - -
26/03:30pm 19.7 SSE 11 17 - - 0.0 - - - - - - -
26/03:00pm 20.3 SE 7 11 - - 0.0 - - - - - - -
26/02:30pm 20.1 SE 10 15 - - 0.0 - - - - - - -
26/02:00pm 19.9 SE 8 15 - - 0.0 - - - - - - -
26/01:30pm 19.1 SE 11 16 - - 0.0 - - - - - - -
26/01:00pm 19.4 SE 9 15 - - 0.0 - - - - - - -
26/12:30pm 19.2 SSE 10 15 - - 0.0 - - - - - - -
26/12:00pm 19.0 SSE 9 14 - - 0.0 - - - - - - -
26/11:30am 18.3 SE 10 14 - - 0.0 - - - - - - -
26/11:00am 17.1 SSE 12 15 - - 0.0 - - - - - - -
26/10:30am 17.6 SSE 6 11 - - 0.0 - - - - - - -
26/10:00am 17.6 SSE 7 12 - - 0.0 - - - - - - -
26/09:30am 17.7 SSE 8 12 - - 0.0 - - - - - - -
26/09:00am 17.6 SSE 6 9 - - 0.0 - - - - - - -
26/08:30am 15.8 ESE 6 10 - - 0.0 - - - - - - -
26/08:00am 14.9 SE 6 8 - - 0.0 - - - - - - -
26/07:30am 14.4 ESE 6 8 - - 0.0 - - - - - - -
26/07:00am 13.9 SE 5 7 - - 0.0 - - - - - - -
26/06:30am 13.6 SE 7 10 - - 0.0 - - - - - - -
26/06:00am 13.4 SE 11 15 - - 0.0 - - - - - - -
26/05:30am 13.6 SSE 8 11 - - 0.0 - - - - - - -
26/05:00am 14.2 SE 8 11 - - 0.0 - - - - - - -
26/04:30am 14.9 S 2 4 - - 0.0 - - - - - - -
26/04:00am 14.9 SSE 1 2 - - 0.0 - - - - - - -
26/03:30am 14.7 SE 1 2 - - 0.0 - - - - - - -
26/03:00am 14.8 SSE 2 3 - - 0.0 - - - - - - -
26/02:30am 14.8 SSE 4 5 - - 0.0 - - - - - - -
26/02:00am 14.7 SE 4 6 - - 0.0 - - - - - - -
26/01:30am 14.6 ESE 5 7 - - 0.0 - - - - - - -
26/01:00am 14.4 SSE 2 3 - - 0.0 - - - - - - -
26/12:30am 14.4 SW 3 6 - - 0.0 - - - - - - -
26/12:00am 15.4 SSE 5 8 - - 0.0 - - - - - - -
 
Date/Time
CDT
Temp

°C
Wind Pressure Rain
since 9am
mm
Weather Cloud Vis
km
Sea
Height
m
Swell
Dir
 
Speed
knots
Gust
knots
hPa Trend Height
m
Period
s
Dir
25/11:30pm 15.3 SE 3 5 - - 0.0 - - - - - - -
25/11:00pm 14.9 SSE 3 4 - - 0.0 - - - - - - -
25/10:30pm 15.0 S 5 6 - - 0.0 - - - - - - -
25/10:00pm 15.6 S 6 8 - - 0.0 - - - - - - -
25/09:30pm 15.6 S 7 9 - - 0.0 - - - - - - -
25/09:00pm 16.3 S 9 14 - - 0.0 - - - - - - -
25/08:30pm 16.8 S 10 16 - - 0.0 - - - - - - -
25/08:00pm 17.1 S 12 18 - - 0.0 - - - - - - -
25/07:30pm 18.2 S 11 17 - - 0.0 - - - - - - -
25/07:00pm 19.7 SSW 10 15 - - 0.0 - - - - - - -
25/06:30pm 20.1 SW 12 18 - - 0.0 - - - - - - -
25/06:00pm 20.6 SW 12 19 - - 0.0 - - - - - - -
25/05:30pm 20.6 SW 13 18 - - 0.0 - - - - - - -
25/05:00pm 20.9 SW 12 20 - - 0.0 - - - - - - -
25/04:30pm 20.8 WSW 13 20 - - 0.0 - - - - - - -
25/04:00pm 20.6 WSW 14 20 - - 0.0 - - - - - - -
25/03:30pm 20.4 SW 11 18 - - 0.0 - - - - - - -
25/03:00pm 20.8 SW 11 17 - - 0.0 - - - - - - -
25/02:30pm 20.0 SW 12 19 - - 0.0 - - - - - - -
25/02:00pm 19.7 SW 11 19 - - 0.0 - - - - - - -
25/01:30pm 20.1 SW 11 19 - - 0.0 - - - - - - -
25/01:00pm 18.9 WSW 13 21 - - 0.0 - - - - - - -
25/12:30pm 19.3 WSW 12 20 - - 0.0 - - - - - - -
25/12:00pm 18.3 WSW 11 15 - - 0.0 - - - - - - -
25/11:30am 17.6 WSW 11 16 - - 0.0 - - - - - - -
25/11:00am 18.9 SW 9 13 - - 0.0 - - - - - - -
25/10:30am 18.1 SW 11 16 - - 0.0 - - - - - - -
25/10:00am 17.0 SW 9 14 - - 0.0 - - - - - - -
25/09:30am 16.9 SSW 7 12 - - 0.0 - - - - - - -
25/09:00am 16.3 SW 9 15 - - 0.0 - - - - - - -
25/08:30am 16.1 SSW 6 12 - - 0.0 - - - - - - -
25/08:00am 15.8 SSW 7 13 - - 0.0 - - - - - - -
25/07:30am 15.6 SW 4 6 - - 0.0 - - - - - - -
25/07:00am 15.5 S 5 8 - - 0.0 - - - - - - -
25/06:30am 15.1 S 6 10 - - 0.0 - - - - - - -
25/06:00am 14.2 S 2 4 - - 0.0 - - - - - - -
25/05:30am 14.2 S 3 4 - - 0.0 - - - - - - -
25/05:00am 15.1 SW 5 10 - - 0.0 - - - - - - -
25/04:30am 15.4 SSW 5 8 - - 0.0 - - - - - - -
25/04:00am 15.5 SSW 8 12 - - 0.0 - - - - - - -
25/03:30am 15.8 S 7 10 - - 0.0 - - - - - - -
25/03:00am 16.2 SW 11 15 - - 0.0 - - - - - - -
25/02:30am 16.5 SW 10 18 - - 0.0 - - - - - - -
25/02:00am 16.7 SW 11 19 - - 0.0 - - - - - - -
25/01:30am 16.8 SW 10 16 - - 0.0 - - - - - - -
25/01:00am 17.0 SW 13 19 - - 0.0 - - - - - - -
25/12:30am 17.1 SW 15 22 - - 0.0 - - - - - - -
25/12:00am 17.2 SW 12 21 - - 0.0 - - - - - - -
 
Date/Time
CDT
Temp

°C
Wind Pressure Rain
since 9am
mm
Weather Cloud Vis
km
Sea
Height
m
Swell
Dir
 
Speed
knots
Gust
knots
hPa Trend Height
m
Period
s
Dir
24/11:30pm 17.4 SW 17 24 - - 0.0 - - - - - - -
24/11:00pm 17.8 WSW 11 17 - - 0.0 - - - - - - -
24/10:30pm 17.2 W 13 22 - - 0.0 - - - - - - -
24/10:00pm 18.5 W 13 21 - - 0.0 - - - - - - -
24/09:30pm 18.1 WSW 11 17 - - 0.0 - - - - - - -
24/09:04pm 18.6 WSW 16 27 - - 0.0 - - - - - - -
24/09:00pm 18.8 WSW 15 25 - - 0.0 - - - - - - -
24/08:30pm 19.9 WSW 13 20 - - 0.0 - - - - - - -
24/08:00pm 20.3 WSW 14 22 - - 0.0 - - - - - - -
24/07:30pm 21.2 W 9 15 - - 0.0 - - - - - - -
24/07:00pm 21.6 WSW 15 21 - - 0.0 - - - - - - -
24/06:30pm 21.5 W 10 16 - - 0.0 - - - - - - -
24/06:00pm 21.7 WSW 14 21 - - 0.0 - - - - - - -
24/05:30pm 22.1 W 12 20 - - 0.0 - - - - - - -
24/05:00pm 21.6 W 11 16 - - 0.0 - - - - - - -
24/04:30pm 22.3 W 9 15 - - 0.0 - - - - - - -
24/04:00pm 22.5 W 8 13 - - 0.0 - - - - - - -
24/03:30pm 21.9 W 8 11 - - 0.0 - - - - - - -
24/03:00pm 22.4 WSW 10 16 - - 0.0 - - - - - - -
24/02:30pm 22.5 WSW 10 17 - - 0.0 - - - - - - -
24/02:00pm 21.5 W 11 17 - - 0.0 - - - - - - -
24/01:30pm 22.1 W 9 17 - - 0.0 - - - - - - -
24/01:00pm 21.4 WNW 8 12 - - 0.0 - - - - - - -
24/12:30pm 21.7 NW 8 13 - - 0.0 - - - - - - -
24/12:00pm 21.4 W 9 15 - - 0.0 - - - - - - -
24/11:30am 20.5 WNW 9 14 - - 0.0 - - - - - - -
24/11:00am 20.7 WNW 9 12 - - 0.0 - - - - - - -
24/10:30am 19.9 W 9 14 - - 0.0 - - - - - - -
24/10:00am 19.0 W 9 14 - - 0.0 - - - - - - -
24/09:30am 19.4 WNW 7 13 - - 0.0 - - - - - - -
24/09:00am 19.1 WNW 8 11 - - 0.0 - - - - - - -
24/08:30am 18.7 WNW 8 14 - - 0.0 - - - - - - -
24/08:00am 18.5 W 9 13 - - 0.0 - - - - - - -
24/07:30am 18.1 WNW 7 11 - - 0.0 - - - - - - -
24/07:00am 18.0 WNW 8 12 - - 0.0 - - - - - - -
24/06:30am 17.9 WNW 6 12 - - 0.0 - - - - - - -
24/06:00am 16.9 N 4 9 - - 0.0 - - - - - - -
24/05:30am 16.1 NE 4 5 - - 0.0 - - - - - - -
24/05:00am 15.9 NE 5 6 - - 0.0 - - - - - - -
24/04:30am 16.0 NE 4 5 - - 0.0 - - - - - - -
24/04:00am 15.8 NE 4 5 - - 0.0 - - - - - - -
24/03:30am 15.3 NE 4 5 - - 0.0 - - - - - - -
24/03:00am 15.7 ENE 4 6 - - 0.0 - - - - - - -
24/02:30am 15.7 ENE 3 4 - - 0.0 - - - - - - -
24/02:00am 15.8 ENE 4 6 - - 0.0 - - - - - - -
24/01:30am 15.5 E 4 5 - - 0.0 - - - - - - -
24/01:00am 15.7 E 4 5 - - 0.0 - - - - - - -

Other Formats:

Comma delimited format used in spreadsheet applications
http://www.bom.gov.au/fwo/IDS60701/IDS60701.94808.axf

JavaScript Object Notation format (JSON) in row-major order
http://www.bom.gov.au/fwo/IDS60701/IDS60701.94808.json